Time;durP1;ratioP1;P1;durP2;ratioP2;P2;SDS_P1;SDS_P2;PMS_P1;PMS_P2;Temp;Humidity;BMP_temperature;BMP_pressure;BME280_temperature;BME280_humidity;BME280_pressure;Samples;Min_cycle;Max_cycle;Signal;HPM_P1;HPM_P2
2022/10/06 00:01:40;;;;;;;;;;;;;;;;;;5040624;28;1949;-79
2022/10/06 00:04:05;;;;;;;;;;;;;;;;;;5040513;28;807;-79
2022/10/06 00:06:30;;;;;;;;;;;;;;;;;;5040431;28;993;-78
2022/10/06 00:08:55;;;;;;;;;;;;;;;;;;5040625;28;886;-78
2022/10/06 00:11:21;;;;;;;;;;;;;;;;;;5040672;28;1271;-78
2022/10/06 00:13:46;;;;;;;;;;;;;;;;;;5040510;28;902;-78
2022/10/06 00:16:13;;;;;;;;;;;;;;;;;;5040254;28;815;-78
2022/10/06 00:18:39;;;;;;;;;;;;;;;;;;5042051;28;807;-78
2022/10/06 00:21:04;;;;;;;;;;;;;;;;;;5044245;28;1251;-78
2022/10/06 00:23:30;;;;;;;;;;;;;;;;;;5026195;28;1910;-78
2022/10/06 00:25:55;;;;;;;;;;;;;;;;;;5043998;28;941;-78
2022/10/06 00:28:21;;;;;;;;;;;;;;;;;;5044417;28;914;-78
2022/10/06 00:30:46;;;;;;;;;;;;;;;;;;5044149;28;1013;-78
2022/10/06 00:33:13;;;;;;;;;;;;;;;;;;5043579;28;1160;-78
2022/10/06 00:35:38;;;;;;;;;;;;;;;;;;5043555;28;795;-78
2022/10/06 00:38:04;;;;;;;;;;;;;;;;;;5043810;28;842;-78
2022/10/06 00:40:30;;;;;;;;;;;;;;;;;;5043665;28;930;-78
2022/10/06 00:42:59;;;;;;;;;;;;;;;;;;5080194;22;3602;-69
2022/10/06 00:45:33;;;;;;;;;;;;;;;;;;5082773;28;894;-69
2022/10/06 00:48:01;;;;;;;;;;;;;;;;;;5083680;28;858;-69
2022/10/06 00:50:26;;;;;;;;;;;;;;;;;;5083493;28;912;-69
2022/10/06 00:52:54;;;;;;;;;;;;;;;;;;5083612;28;1152;-69
2022/10/06 00:55:21;;;;;;;;;;;;;;;;;;5083181;28;803;-69
2022/10/06 00:57:47;;;;;;;;;;;;;;;;;;5083551;28;815;-69
2022/10/06 01:00:12;;;;;;;;;;;;;;;;;;5083308;28;803;-69
2022/10/06 01:02:46;;;;;;;;;;;;;;;;;;5083384;28;1926;-69
2022/10/06 01:05:15;;;;;;;;;;;;;;;;;;5083007;28;905;-69
2022/10/06 01:07:40;;;;;;;;;;;;;;;;;;5083545;28;795;-69
2022/10/06 01:10:06;;;;;;;;;;;;;;;;;;5083276;28;981;-69
2022/10/06 01:12:32;;;;;;;;;;;;;;;;;;5083140;28;1140;-69
2022/10/06 01:14:57;;;;;;;;;;;;;;;;;;5082823;28;886;-69
2022/10/06 01:17:33;;;;;;;;;;;;;;;;;;5083071;28;1061;-70
2022/10/06 01:19:59;;;;;;;;;;;;;;;;;;5083299;28;866;-70
2022/10/06 01:22:29;;;;;;;;;;;;;;;;;;5083171;28;1901;-69
2022/10/06 01:24:54;;;;;;;;;;;;;;;;;;5082665;28;830;-70
2022/10/06 01:27:21;;;;;;;;;;;;;;;;;;5083068;28;942;-69
2022/10/06 01:29:49;;;;;;;;;;;;;;;;;;5082839;28;807;-69
2022/10/06 01:32:14;;;;;;;;;;;;;;;;;;5083374;28;1246;-70
2022/10/06 01:34:39;;;;;;;;;;;;;;;;;;5082631;28;913;-70
2022/10/06 01:37:04;;;;;;;;;;;;;;;;;;5082785;28;831;-70
2022/10/06 01:39:29;;;;;;;;;;;;;;;;;;5083028;28;1084;-70
2022/10/06 01:41:54;;;;;;;;;;;;;;;;;;5082456;28;1973;-70
2022/10/06 01:44:20;;;;;;;;;;;;;;;;;;5082798;28;846;-69
2022/10/06 01:46:45;;;;;;;;;;;;;;;;;;5082359;28;882;-70
2022/10/06 01:49:10;;;;;;;;;;;;;;;;;;5082800;28;791;-70
2022/10/06 01:51:35;;;;;;;;;;;;;;;;;;5082463;28;1176;-70
2022/10/06 01:54:00;;;;;;;;;;;;;;;;;;5082929;28;791;-70
2022/10/06 01:56:26;;;;;;;;;;;;;;;;;;5082127;28;837;-70
2022/10/06 01:58:51;;;;;;;;;;;;;;;;;;5082749;28;776;-70
2022/10/06 02:01:16;;;;;;;;;;;;;;;;;;5082394;28;917;-70
2022/10/06 02:03:41;;;;;;;;;;;;;;;;;;5082435;28;1898;-70
2022/10/06 02:06:07;;;;;;;;;;;;;;;;;;5082120;28;949;-70
2022/10/06 02:08:32;;;;;;;;;;;;;;;;;;5082482;28;1009;-70
2022/10/06 02:10:57;;;;;;;;;;;;;;;;;;5082173;28;788;-70
2022/10/06 02:13:23;;;;;;;;;;;;;;;;;;5082252;28;1216;-70
2022/10/06 02:15:49;;;;;;;;;;;;;;;;;;5081763;28;898;-70
2022/10/06 02:18:15;;;;;;;;;;;;;;;;;;5082186;28;906;-69
2022/10/06 02:20:40;;;;;;;;;;;;;;;;;;5082133;28;1060;-69
2022/10/06 02:23:05;;;;;;;;;;;;;;;;;;5082114;28;1951;-69
2022/10/06 02:25:30;;;;;;;;;;;;;;;;;;5081724;28;910;-70
2022/10/06 02:27:55;;;;;;;;;;;;;;;;;;5082254;28;776;-69
2022/10/06 02:30:20;;;;;;;;;;;;;;;;;;5082118;28;902;-70
2022/10/06 02:32:46;;;;;;;;;;;;;;;;;;5081817;28;1144;-70
2022/10/06 02:35:11;;;;;;;;;;;;;;;;;;5081765;28;910;-70
2022/10/06 02:37:37;;;;;;;;;;;;;;;;;;5081814;28;857;-69
2022/10/06 02:40:02;;;;;;;;;;;;;;;;;;5081847;28;897;-69
2022/10/06 02:42:27;;;;;;;;;;;;;;;;;;5081230;28;1891;-69
2022/10/06 02:44:53;;;;;;;;;;;;;;;;;;5081687;28;771;-70
2022/10/06 02:47:18;;;;;;;;;;;;;;;;;;5081583;28;993;-70
2022/10/06 02:49:44;;;;;;;;;;;;;;;;;;5081676;28;838;-70
2022/10/06 02:52:10;;;;;;;;;;;;;;;;;;5081675;28;1172;-69
2022/10/06 02:54:35;;;;;;;;;;;;;;;;;;5081466;28;929;-70
2022/10/06 02:57:00;;;;;;;;;;;;;;;;;;5081324;28;852;-70
2022/10/06 02:59:26;;;;;;;;;;;;;;;;;;5081821;28;930;-69
2022/10/06 03:01:51;;;;;;;;;;;;;;;;;;5081282;28;1894;-70
2022/10/06 03:04:16;;;;;;;;;;;;;;;;;;5081721;28;1001;-69
2022/10/06 03:06:42;;;;;;;;;;;;;;;;;;5080981;28;953;-70
2022/10/06 03:09:08;;;;;;;;;;;;;;;;;;5081485;28;843;-69
2022/10/06 03:11:34;;;;;;;;;;;;;;;;;;5081309;28;1168;-69
2022/10/06 03:14:00;;;;;;;;;;;;;;;;;;5081419;28;834;-70
2022/10/06 03:16:29;;;;;;;;;;;;;;;;;;5080961;28;925;-69
2022/10/06 03:18:55;;;;;;;;;;;;;;;;;;5079610;28;881;-69
2022/10/06 03:21:24;;;;;;;;;;;;;;;;;;5081385;28;1004;-69
2022/10/06 03:23:50;;;;;;;;;;;;;;;;;;5063189;28;1902;-70
2022/10/06 03:26:17;;;;;;;;;;;;;;;;;;5080972;28;798;-70
2022/10/06 03:28:42;;;;;;;;;;;;;;;;;;5081104;28;846;-69
2022/10/06 03:31:07;;;;;;;;;;;;;;;;;;5081248;28;981;-69
2022/10/06 03:33:33;;;;;;;;;;;;;;;;;;5081130;28;1213;-69
2022/10/06 03:36:08;;;;;;;;;;;;;;;;;;5080897;28;819;-70
2022/10/06 03:38:34;;;;;;;;;;;;;;;;;;5080979;28;810;-69
2022/10/06 03:41:03;;;;;;;;;;;;;;;;;;5081093;28;865;-69
2022/10/06 03:43:29;;;;;;;;;;;;;;;;;;5080930;28;1902;-70
2022/10/06 03:45:59;;;;;;;;;;;;;;;;;;5080989;28;787;-69
2022/10/06 03:48:25;;;;;;;;;;;;;;;;;;5080957;28;882;-69
2022/10/06 03:50:54;;;;;;;;;;;;;;;;;;5080902;28;814;-70
2022/10/06 03:53:24;;;;;;;;;;;;;;;;;;5082414;28;1220;-69
2022/10/06 03:55:49;;;;;;;;;;;;;;;;;;5084098;28;842;-69
2022/10/06 03:58:15;;;;;;;;;;;;;;;;;;5084448;28;811;-69
2022/10/06 04:00:42;;;;;;;;;;;;;;;;;;5084502;28;817;-70
2022/10/06 04:03:07;;;;;;;;;;;;;;;;;;5066416;28;1894;-69
2022/10/06 04:05:32;;;;;;;;;;;;;;;;;;5084010;28;795;-69
2022/10/06 04:07:57;;;;;;;;;;;;;;;;;;5084303;28;909;-69
2022/10/06 04:10:22;;;;;;;;;;;;;;;;;;5084086;28;993;-70
2022/10/06 04:12:48;;;;;;;;;;;;;;;;;;5084300;28;1242;-70
2022/10/06 04:15:13;;;;;;;;;;;;;;;;;;5084038;28;783;-70
2022/10/06 04:17:38;;;;;;;;;;;;;;;;;;5084434;28;904;-70
2022/10/06 04:20:04;;;;;;;;;;;;;;;;;;5083981;28;925;-70
2022/10/06 04:22:29;;;;;;;;;;;;;;;;;;5083914;28;1902;-70
2022/10/06 04:24:54;;;;;;;;;;;;;;;;;;5083898;28;858;-70
2022/10/06 04:27:28;;;;;;;;;;;;;;;;;;5083923;28;961;-70
2022/10/06 04:29:55;;;;;;;;;;;;;;;;;;5083949;28;779;-70
2022/10/06 04:32:20;;;;;;;;;;;;;;;;;;5083898;28;1236;-70
2022/10/06 04:34:45;;;;;;;;;;;;;;;;;;5083657;28;799;-70
2022/10/06 04:37:10;;;;;;;;;;;;;;;;;;5083636;28;869;-70
2022/10/06 04:39:36;;;;;;;;;;;;;;;;;;5083840;28;941;-70
2022/10/06 04:42:02;;;;;;;;;;;;;;;;;;5083688;28;1981;-70
2022/10/06 04:44:28;;;;;;;;;;;;;;;;;;5083355;28;977;-69
2022/10/06 04:46:53;;;;;;;;;;;;;;;;;;5083648;28;887;-69
2022/10/06 04:49:18;;;;;;;;;;;;;;;;;;5083659;28;846;-69
2022/10/06 04:51:43;;;;;;;;;;;;;;;;;;5083416;28;1183;-69
2022/10/06 04:54:09;;;;;;;;;;;;;;;;;;5083666;28;968;-70
2022/10/06 04:56:34;;;;;;;;;;;;;;;;;;5083351;28;854;-70
2022/10/06 04:58:59;;;;;;;;;;;;;;;;;;5083475;28;877;-70
2022/10/06 05:01:26;;;;;;;;;;;;;;;;;;5083198;28;1183;-69
2022/10/06 05:03:52;;;;;;;;;;;;;;;;;;5083134;28;1890;-69
2022/10/06 05:06:19;;;;;;;;;;;;;;;;;;5083010;28;882;-70
2022/10/06 05:08:51;;;;;;;;;;;;;;;;;;5083368;28;870;-69
2022/10/06 05:11:17;;;;;;;;;;;;;;;;;;5083437;28;783;-70
2022/10/06 05:13:42;;;;;;;;;;;;;;;;;;5083315;28;1192;-70
2022/10/06 05:16:09;;;;;;;;;;;;;;;;;;5082818;28;1060;-70
2022/10/06 05:18:35;;;;;;;;;;;;;;;;;;5083139;28;802;-70
2022/10/06 05:21:04;;;;;;;;;;;;;;;;;;5083015;28;806;-70
2022/10/06 05:23:30;;;;;;;;;;;;;;;;;;5083174;28;1893;-70
2022/10/06 05:25:56;;;;;;;;;;;;;;;;;;5082639;28;1048;-70
2022/10/06 05:28:22;;;;;;;;;;;;;;;;;;5083193;28;811;-70
2022/10/06 05:31:01;;;;;;;;;;;;;;;;;;5065296;28;1413;-70
2022/10/06 05:33:27;;;;;;;;;;;;;;;;;;5082820;28;1251;-70
2022/10/06 05:35:54;;;;;;;;;;;;;;;;;;5082583;28;901;-71
2022/10/06 05:38:20;;;;;;;;;;;;;;;;;;5083026;28;929;-71
2022/10/06 05:40:45;;;;;;;;;;;;;;;;;;5082868;28;945;-70
2022/10/06 05:43:10;;;;;;;;;;;;;;;;;;5082648;28;1969;-70
2022/10/06 05:45:35;;;;;;;;;;;;;;;;;;5064414;28;1437;-70
2022/10/06 05:48:00;;;;;;;;;;;;;;;;;;5082610;28;921;-70
2022/10/06 05:50:25;;;;;;;;;;;;;;;;;;5082487;28;815;-70
2022/10/06 05:52:53;;;;;;;;;;;;;;;;;;5082520;28;1242;-70
2022/10/06 05:55:18;;;;;;;;;;;;;;;;;;5082323;28;885;-70
2022/10/06 05:57:43;;;;;;;;;;;;;;;;;;5082615;28;1017;-70
2022/10/06 06:00:09;;;;;;;;;;;;;;;;;;5082662;28;953;-70
2022/10/06 06:02:34;;;;;;;;;;;;;;;;;;5082497;28;1902;-70
2022/10/06 06:04:59;;;;;;;;;;;;;;;;;;5082228;28;957;-69
2022/10/06 06:07:24;;;;;;;;;;;;;;;;;;5082360;28;993;-70
2022/10/06 06:09:49;;;;;;;;;;;;;;;;;;5082505;28;833;-70
2022/10/06 06:12:15;;;;;;;;;;;;;;;;;;5082205;28;1184;-70
2022/10/06 06:17:24;;;;;;;;;;;;;;;;;;5081781;28;688;-69
2022/10/06 06:19:49;;;;;;;;;;;;;;;;;;5082300;28;791;-69
2022/10/06 06:22:14;;;;;;;;;;;;;;;;;;5081873;28;1960;-69
2022/10/06 06:24:39;;;;;;;;;;;;;;;;;;5082119;28;849;-69
2022/10/06 06:27:05;;;;;;;;;;;;;;;;;;5082104;28;827;-70
2022/10/06 06:29:30;;;;;;;;;;;;;;;;;;5081938;28;981;-70
2022/10/06 06:31:55;;;;;;;;;;;;;;;;;;5081915;28;1254;-69
2022/10/06 06:34:20;;;;;;;;;;;;;;;;;;5082259;28;922;-70
2022/10/06 06:36:52;;;;;;;;;;;;;;;;;;5081975;28;829;-70
2022/10/06 06:39:18;;;;;;;;;;;;;;;;;;5081838;28;893;-70
2022/10/06 06:44:15;;;;;;;;;;;;;;;;;;5058651;28;1752;-75
2022/10/06 06:46:47;;;;;;;;;;;;;;;;;;5060633;28;866;-75
2022/10/06 06:49:13;;;;;;;;;;;;;;;;;;5061216;28;861;-75
2022/10/06 06:51:39;;;;;;;;;;;;;;;;;;5061299;28;1028;-75
2022/10/06 06:54:05;;;;;;;;;;;;;;;;;;5060912;28;1208;-77
2022/10/06 06:56:33;;;;;;;;;;;;;;;;;;5061022;28;811;-76
2022/10/06 06:58:59;;;;;;;;;;;;;;;;;;5061242;28;843;-76
2022/10/06 07:01:24;;;;;;;;;;;;;;;;;;5061072;28;835;-76
2022/10/06 07:03:53;;;;;;;;;;;;;;;;;;5060982;28;1914;-76
2022/10/06 07:06:19;;;;;;;;;;;;;;;;;;5060698;28;1002;-77
2022/10/06 07:08:44;;;;;;;;;;;;;;;;;;5060978;28;786;-76
2022/10/06 07:11:11;;;;;;;;;;;;;;;;;;5061002;28;881;-76
2022/10/06 07:13:36;;;;;;;;;;;;;;;;;;5060740;28;1229;-76
2022/10/06 07:26:57;;;;;;;;;;;;;;;;;;5060583;28;640;-76
2022/10/06 07:29:22;;;;;;;;;;;;;;;;;;5042544;28;1364;-76
2022/10/06 07:31:47;;;;;;;;;;;;;;;;;;5060579;28;1168;-76
2022/10/06 07:34:12;;;;;;;;;;;;;;;;;;5060522;28;891;-76
2022/10/06 07:36:37;;;;;;;;;;;;;;;;;;5060447;28;1052;-76
2022/10/06 07:39:03;;;;;;;;;;;;;;;;;;5060375;28;787;-76
2022/10/06 07:41:29;;;;;;;;;;;;;;;;;;5060663;28;795;-76
2022/10/06 07:43:54;;;;;;;;;;;;;;;;;;5060161;28;1894;-76
2022/10/06 07:46:20;;;;;;;;;;;;;;;;;;5060221;28;873;-76
2022/10/06 07:48:48;;;;;;;;;;;;;;;;;;5060144;28;775;-76
2022/10/06 07:51:15;;;;;;;;;;;;;;;;;;5060416;28;815;-76
2022/10/06 07:53:40;;;;;;;;;;;;;;;;;;5060227;28;1235;-76
2022/10/06 07:56:06;;;;;;;;;;;;;;;;;;5060101;28;838;-76
2022/10/06 07:58:32;;;;;;;;;;;;;;;;;;5060247;28;882;-76
2022/10/06 08:01:03;;;;;;;;;;;;;;;;;;5059993;28;984;-77
2022/10/06 08:03:28;;;;;;;;;;;;;;;;;;5060117;28;2245;-77
2022/10/06 08:05:57;;;;;;;;;;;;;;;;;;5059840;28;775;-77
2022/10/06 08:08:23;;;;;;;;;;;;;;;;;;5060244;28;819;-76
2022/10/06 08:10:52;;;;;;;;;;;;;;;;;;5059757;28;1063;-76
2022/10/06 08:13:17;;;;;;;;;;;;;;;;;;5060104;28;1172;-76
2022/10/06 08:15:43;;;;;;;;;;;;;;;;;;5059544;28;996;-77
2022/10/06 08:18:08;;;;;;;;;;;;;;;;;;5060054;28;850;-77
2022/10/06 08:20:33;;;;;;;;;;;;;;;;;;5058256;28;1101;-77
2022/10/06 08:22:58;;;;;;;;;;;;;;;;;;5059504;28;1957;-77
2022/10/06 08:25:23;;;;;;;;;;;;;;;;;;5059857;28;1071;-77
2022/10/06 08:27:48;;;;;;;;;;;;;;;;;;5059920;28;886;-77
2022/10/06 08:30:14;;;;;;;;;;;;;;;;;;5059385;28;803;-76
2022/10/06 08:32:41;;;;;;;;;;;;;;;;;;5059872;28;1148;-76
2022/10/06 08:35:07;;;;;;;;;;;;;;;;;;5059522;28;815;-77
2022/10/06 08:37:32;;;;;;;;;;;;;;;;;;5059806;28;807;-76
2022/10/06 08:39:57;;;;;;;;;;;;;;;;;;5062192;28;808;-76
2022/10/06 08:42:30;;;;;;;;;;;;;;;;;;5062822;28;1882;-76
2022/10/06 08:45:01;;;;;;;;;;;;;;;;;;5062769;28;882;-75
2022/10/06 08:47:28;;;;;;;;;;;;;;;;;;5062941;28;780;-74
2022/10/06 08:49:53;;;;;;;;;;;;;;;;;;5063043;28;830;-75
2022/10/06 08:52:21;;;;;;;;;;;;;;;;;;5062809;28;1239;-76
2022/10/06 08:54:49;;;;;;;;;;;;;;;;;;5062985;28;1000;-76
2022/10/06 08:57:25;;;;;;;;;;;;;;;;;;5062864;28;986;-76
2022/10/06 08:59:54;;;;;;;;;;;;;;;;;;5063026;28;1040;-76
2022/10/06 09:02:25;;;;;;;;;;;;;;;;;;5062654;28;1889;-76
2022/10/06 09:04:50;;;;;;;;;;;;;;;;;;5044846;28;918;-76
2022/10/06 09:07:26;;;;;;;;;;;;;;;;;;5062826;28;857;-76
2022/10/06 09:10:10;;;;;;;;;;;;;;;;;;5062754;28;1012;-77
2022/10/06 09:12:42;;;;;;;;;;;;;;;;;;5062492;28;1247;-77
2022/10/06 09:15:14;;;;;;;;;;;;;;;;;;5062469;28;961;-75
2022/10/06 09:17:42;;;;;;;;;;;;;;;;;;5062316;28;993;-74
2022/10/06 09:20:19;;;;;;;;;;;;;;;;;;5062592;28;953;-75
2022/10/06 09:22:45;;;;;;;;;;;;;;;;;;5062421;28;1967;-75
2022/10/06 09:25:19;;;;;;;;;;;;;;;;;;5062238;28;1021;-77
2022/10/06 09:27:49;;;;;;;;;;;;;;;;;;5062505;28;894;-76
2022/10/06 09:30:14;;;;;;;;;;;;;;;;;;5062410;28;878;-77
2022/10/06 09:32:45;;;;;;;;;;;;;;;;;;5062128;28;1258;-77
2022/10/06 09:35:15;;;;;;;;;;;;;;;;;;5062248;28;898;-78
2022/10/06 09:38:03;;;;;;;;;;;;;;;;;;5062153;28;986;-77
2022/10/06 09:40:35;;;;;;;;;;;;;;;;;;5062304;28;893;-77
2022/10/06 09:43:02;;;;;;;;;;;;;;;;;;5061893;28;1901;-75
2022/10/06 09:45:27;;;;;;;;;;;;;;;;;;5061870;28;873;-75
2022/10/06 09:47:53;;;;;;;;;;;;;;;;;;5062247;28;915;-75
2022/10/06 09:50:22;;;;;;;;;;;;;;;;;;5060801;28;1039;-77
2022/10/06 09:52:56;;;;;;;;;;;;;;;;;;5061853;28;1250;-77
2022/10/06 09:55:27;;;;;;;;;;;;;;;;;;5061929;28;1041;-78
2022/10/06 09:57:54;;;;;;;;;;;;;;;;;;5044034;28;835;-77
2022/10/06 10:00:34;;;;;;;;;;;;;;;;;;5062150;28;838;-78
2022/10/06 10:03:12;;;;;;;;;;;;;;;;;;5061653;28;1971;-77
2022/10/06 10:05:39;;;;;;;;;;;;;;;;;;5061565;28;1031;-78
2022/10/06 10:08:20;;;;;;;;;;;;;;;;;;5061759;28;846;-78
2022/10/06 10:10:46;;;;;;;;;;;;;;;;;;5061710;28;917;-75
2022/10/06 10:13:33;;;;;;;;;;;;;;;;;;5061606;28;1105;-78
2022/10/06 10:16:00;;;;;;;;;;;;;;;;;;5060417;28;1414;-78
2022/10/06 10:18:27;;;;;;;;;;;;;;;;;;5044027;28;1182;-77
2022/10/06 10:20:54;;;;;;;;;;;;;;;;;;5061629;28;858;-77
2022/10/06 10:23:24;;;;;;;;;;;;;;;;;;5061370;28;1982;-77
2022/10/06 10:25:57;;;;;;;;;;;;;;;;;;5061385;28;796;-78
2022/10/06 10:28:22;;;;;;;;;;;;;;;;;;5061313;28;897;-78
2022/10/06 10:30:58;;;;;;;;;;;;;;;;;;5061279;28;866;-77
2022/10/06 10:33:30;;;;;;;;;;;;;;;;;;5061194;28;1196;-77
2022/10/06 10:35:55;;;;;;;;;;;;;;;;;;5061354;28;799;-78
2022/10/06 10:38:22;;;;;;;;;;;;;;;;;;5061308;28;981;-77
2022/10/06 10:40:47;;;;;;;;;;;;;;;;;;5061065;28;717;-77
2022/10/06 10:43:21;;;;;;;;;;;;;;;;;;5061310;28;1971;-76
2022/10/06 10:45:48;;;;;;;;;;;;;;;;;;5060789;28;834;-77
2022/10/06 10:48:37;;;;;;;;;;;;;;;;;;5061355;28;795;-77
2022/10/06 10:51:05;;;;;;;;;;;;;;;;;;5014451;28;1311;-77
2022/10/06 10:53:37;;;;;;;;;;;;;;;;;;5061019;28;1160;-76
2022/10/06 10:56:04;;;;;;;;;;;;;;;;;;5060909;28;1055;-77
2022/10/06 10:58:33;;;;;;;;;;;;;;;;;;5061174;28;818;-77
2022/10/06 11:01:24;;;;;;;;;;;;;;;;;;5061009;28;933;-77
2022/10/06 11:03:55;;;;;;;;;;;;;;;;;;5060847;28;1965;-77
2022/10/06 11:06:32;;;;;;;;;;;;;;;;;;5060775;28;851;-77
2022/10/06 11:09:03;;;;;;;;;;;;;;;;;;5061076;28;870;-76
2022/10/06 11:11:37;;;;;;;;;;;;;;;;;;5060776;28;815;-77
2022/10/06 11:14:07;;;;;;;;;;;;;;;;;;5060661;28;1192;-77
2022/10/06 11:16:37;;;;;;;;;;;;;;;;;;5060478;28;989;-77
2022/10/06 11:19:11;;;;;;;;;;;;;;;;;;5060702;28;937;-77
2022/10/06 11:21:41;;;;;;;;;;;;;;;;;;5042533;28;1343;-77
2022/10/06 11:24:16;;;;;;;;;;;;;;;;;;5060471;28;1894;-77
2022/10/06 11:26:41;;;;;;;;;;;;;;;;;;5060221;28;818;-77
2022/10/06 11:29:26;;;;;;;;;;;;;;;;;;5060786;28;807;-77
2022/10/06 11:32:04;;;;;;;;;;;;;;;;;;5059605;28;1222;-77
2022/10/06 11:34:29;;;;;;;;;;;;;;;;;;5042757;28;1057;-78
2022/10/06 11:37:01;;;;;;;;;;;;;;;;;;5060532;28;878;-76
2022/10/06 11:39:35;;;;;;;;;;;;;;;;;;5060715;28;921;-77
2022/10/06 11:42:10;;;;;;;;;;;;;;;;;;5060026;28;1902;-76
2022/10/06 11:44:35;;;;;;;;;;;;;;;;;;5060560;28;981;-77
2022/10/06 11:47:05;;;;;;;;;;;;;;;;;;5060094;28;818;-77
2022/10/06 11:49:31;;;;;;;;;;;;;;;;;;5060586;28;823;-77
2022/10/06 11:52:16;;;;;;;;;;;;;;;;;;5060418;28;1208;-78
2022/10/06 11:54:55;;;;;;;;;;;;;;;;;;5042181;28;1884;-78
2022/10/06 11:57:23;;;;;;;;;;;;;;;;;;5060051;28;926;-78
2022/10/06 11:59:52;;;;;;;;;;;;;;;;;;5060463;28;859;-77
2022/10/06 12:02:39;;;;;;;;;;;;;;;;;;5060093;28;1968;-77
2022/10/06 12:05:25;;;;;;;;;;;;;;;;;;5060220;28;898;-76
2022/10/06 12:07:53;;;;;;;;;;;;;;;;;;5042718;28;1124;-77
2022/10/06 12:10:27;;;;;;;;;;;;;;;;;;5059919;28;1060;-76
2022/10/06 12:13:10;;;;;;;;;;;;;;;;;;5059912;28;1278;-76
2022/10/06 12:15:36;;;;;;;;;;;;;;;;;;5062952;28;862;-76
2022/10/06 12:18:05;;;;;;;;;;;;;;;;;;5063721;28;941;-76
2022/10/06 12:20:43;;;;;;;;;;;;;;;;;;5063535;28;776;-76
2022/10/06 12:23:08;;;;;;;;;;;;;;;;;;5063268;28;1894;-76
2022/10/06 12:25:33;;;;;;;;;;;;;;;;;;5063130;28;847;-77
2022/10/06 12:28:19;;;;;;;;;;;;;;;;;;5063405;28;929;-77
2022/10/06 12:31:00;;;;;;;;;;;;;;;;;;5063417;28;819;-77
2022/10/06 12:33:37;;;;;;;;;;;;;;;;;;5063202;28;1199;-77
2022/10/06 12:36:03;;;;;;;;;;;;;;;;;;5062775;28;874;-77
2022/10/06 12:38:32;;;;;;;;;;;;;;;;;;5063338;28;937;-77
2022/10/06 12:40:58;;;;;;;;;;;;;;;;;;5063442;28;950;-77
2022/10/06 12:43:25;;;;;;;;;;;;;;;;;;5086538;22;2163;-69
2022/10/06 12:46:09;;;;;;;;;;;;;;;;;;5083242;28;874;-68
2022/10/06 12:48:53;;;;;;;;;;;;;;;;;;5083789;28;1040;-69
2022/10/06 12:51:31;;;;;;;;;;;;;;;;;;5083834;28;905;-69
2022/10/06 12:54:09;;;;;;;;;;;;;;;;;;5067483;28;1244;-69
2022/10/06 12:56:38;;;;;;;;;;;;;;;;;;5063057;28;815;-69
2022/10/06 12:59:18;;;;;;;;;;;;;;;;;;5063311;28;1173;-69
2022/10/06 13:01:44;;;;;;;;;;;;;;;;;;5063171;28;873;-69
2022/10/06 13:04:28;;;;;;;;;;;;;;;;;;5063255;28;1910;-68
2022/10/06 13:06:53;;;;;;;;;;;;;;;;;;5063341;28;1017;-69
2022/10/06 13:09:20;;;;;;;;;;;;;;;;;;5063231;28;1025;-69
2022/10/06 13:11:45;;;;;;;;;;;;;;;;;;5063070;28;878;-69
2022/10/06 13:14:14;;;;;;;;;;;;;;;;;;5063300;28;1258;-69
2022/10/06 13:16:40;;;;;;;;;;;;;;;;;;5062877;28;993;-69
2022/10/06 13:19:13;;;;;;;;;;;;;;;;;;5063340;28;811;-69
2022/10/06 13:21:39;;;;;;;;;;;;;;;;;;5062980;28;819;-69
2022/10/06 13:24:04;;;;;;;;;;;;;;;;;;5060800;28;1968;-69
2022/10/06 13:26:31;;;;;;;;;;;;;;;;;;5062471;28;1056;-69
2022/10/06 13:28:57;;;;;;;;;;;;;;;;;;5062878;28;878;-69
2022/10/06 13:31:27;;;;;;;;;;;;;;;;;;5063017;28;811;-69
2022/10/06 13:33:58;;;;;;;;;;;;;;;;;;5062477;28;1229;-69
2022/10/06 13:36:23;;;;;;;;;;;;;;;;;;5062505;28;989;-69
2022/10/06 13:38:49;;;;;;;;;;;;;;;;;;5062739;28;914;-69
2022/10/06 13:41:22;;;;;;;;;;;;;;;;;;5062780;28;887;-69
2022/10/06 13:43:52;;;;;;;;;;;;;;;;;;5062300;28;1968;-69
2022/10/06 13:46:20;;;;;;;;;;;;;;;;;;5062508;28;969;-70
2022/10/06 13:48:48;;;;;;;;;;;;;;;;;;5062882;28;850;-69
2022/10/06 13:51:17;;;;;;;;;;;;;;;;;;5062498;28;903;-69
2022/10/06 13:53:43;;;;;;;;;;;;;;;;;;5062512;28;1241;-69
2022/10/06 13:56:22;;;;;;;;;;;;;;;;;;5062038;28;1750;-69
2022/10/06 13:58:48;;;;;;;;;;;;;;;;;;5078141;28;1373;-69
2022/10/06 14:01:13;;;;;;;;;;;;;;;;;;5062327;28;982;-69
2022/10/06 14:03:38;;;;;;;;;;;;;;;;;;5062199;28;1969;-69
2022/10/06 14:06:12;;;;;;;;;;;;;;;;;;5061986;28;989;-69
2022/10/06 14:08:37;;;;;;;;;;;;;;;;;;5062532;28;861;-69
2022/10/06 14:11:04;;;;;;;;;;;;;;;;;;5062170;28;787;-69
2022/10/06 14:13:33;;;;;;;;;;;;;;;;;;5062342;28;1152;-69
2022/10/06 14:16:00;;;;;;;;;;;;;;;;;;5061873;28;1205;-69
2022/10/06 14:18:25;;;;;;;;;;;;;;;;;;5062175;28;850;-69
2022/10/06 14:20:53;;;;;;;;;;;;;;;;;;5062070;28;796;-69
2022/10/06 14:23:40;;;;;;;;;;;;;;;;;;5061968;28;1913;-68
2022/10/06 14:26:05;;;;;;;;;;;;;;;;;;5061670;28;839;-69
2022/10/06 14:28:30;;;;;;;;;;;;;;;;;;5062023;28;1001;-68
2022/10/06 14:30:56;;;;;;;;;;;;;;;;;;5061884;28;875;-69
2022/10/06 14:33:22;;;;;;;;;;;;;;;;;;5061815;28;1212;-69
2022/10/06 14:35:48;;;;;;;;;;;;;;;;;;5061601;28;1004;-69
2022/10/06 14:38:13;;;;;;;;;;;;;;;;;;5061385;28;881;-69
2022/10/06 14:40:39;;;;;;;;;;;;;;;;;;5061914;28;873;-69
2022/10/06 14:43:04;;;;;;;;;;;;;;;;;;5061526;28;1906;-69
2022/10/06 14:45:32;;;;;;;;;;;;;;;;;;5061503;28;866;-69
2022/10/06 14:47:58;;;;;;;;;;;;;;;;;;5061814;28;866;-69
2022/10/06 14:50:23;;;;;;;;;;;;;;;;;;5061734;28;812;-70
2022/10/06 14:52:48;;;;;;;;;;;;;;;;;;5061630;28;1267;-69
2022/10/06 14:55:13;;;;;;;;;;;;;;;;;;5061547;28;885;-70
2022/10/06 14:57:39;;;;;;;;;;;;;;;;;;5061542;28;799;-69
2022/10/06 15:00:07;;;;;;;;;;;;;;;;;;5061766;28;886;-70
2022/10/06 15:02:32;;;;;;;;;;;;;;;;;;5061400;28;1973;-69
2022/10/06 15:04:57;;;;;;;;;;;;;;;;;;5061238;28;985;-69
2022/10/06 15:10:07;;;;;;;;;;;;;;;;;;5061517;28;696;-69
2022/10/06 15:12:32;;;;;;;;;;;;;;;;;;5061149;28;1149;-69
2022/10/06 15:14:57;;;;;;;;;;;;;;;;;;5061209;28;800;-69
2022/10/06 15:17:23;;;;;;;;;;;;;;;;;;5061312;28;993;-69
2022/10/06 15:19:48;;;;;;;;;;;;;;;;;;5061475;28;831;-69
2022/10/06 15:22:13;;;;;;;;;;;;;;;;;;5060941;28;1961;-69
2022/10/06 15:24:38;;;;;;;;;;;;;;;;;;5060885;28;791;-70
2022/10/06 15:29:47;;;;;;;;;;;;;;;;;;5061658;28;626;-70
2022/10/06 15:32:13;;;;;;;;;;;;;;;;;;5061004;28;1168;-69
2022/10/06 15:34:38;;;;;;;;;;;;;;;;;;5060803;28;858;-70
2022/10/06 15:37:04;;;;;;;;;;;;;;;;;;5060806;28;779;-70
2022/10/06 15:39:30;;;;;;;;;;;;;;;;;;5061364;28;787;-70
2022/10/06 15:41:55;;;;;;;;;;;;;;;;;;5061054;28;772;-70
2022/10/06 15:44:21;;;;;;;;;;;;;;;;;;5060633;28;1886;-70
2022/10/06 15:46:50;;;;;;;;;;;;;;;;;;5060698;28;859;-69
2022/10/06 15:49:16;;;;;;;;;;;;;;;;;;5063646;28;902;-70
2022/10/06 15:51:47;;;;;;;;;;;;;;;;;;5064710;28;886;-70
2022/10/06 15:54:18;;;;;;;;;;;;;;;;;;5064336;28;1240;-70
2022/10/06 15:56:43;;;;;;;;;;;;;;;;;;5064178;28;815;-70
2022/10/06 15:59:10;;;;;;;;;;;;;;;;;;5064496;28;1052;-69
2022/10/06 16:01:41;;;;;;;;;;;;;;;;;;5064466;28;827;-69
2022/10/06 16:04:12;;;;;;;;;;;;;;;;;;5063971;28;1957;-69
2022/10/06 16:09:13;;;;;;;;;;;;;;;;;;5064254;28;694;-70
2022/10/06 16:11:39;;;;;;;;;;;;;;;;;;5064347;28;1080;-69
2022/10/06 16:14:05;;;;;;;;;;;;;;;;;;5063813;28;1171;-70
2022/10/06 16:16:30;;;;;;;;;;;;;;;;;;5070725;28;818;-71
2022/10/06 16:18:55;;;;;;;;;;;;;;;;;;5071709;28;791;-70
2022/10/06 16:21:20;;;;;;;;;;;;;;;;;;5064339;28;783;-70
2022/10/06 16:23:45;;;;;;;;;;;;;;;;;;5063713;28;1890;-70
2022/10/06 16:26:11;;;;;;;;;;;;;;;;;;5045516;28;1401;-70
2022/10/06 16:28:36;;;;;;;;;;;;;;;;;;5063834;28;928;-70
2022/10/06 16:31:01;;;;;;;;;;;;;;;;;;5063955;28;1012;-70
2022/10/06 16:33:26;;;;;;;;;;;;;;;;;;5063584;28;1168;-70
2022/10/06 16:35:52;;;;;;;;;;;;;;;;;;5063596;28;780;-70
2022/10/06 16:38:17;;;;;;;;;;;;;;;;;;5063648;28;1009;-70
2022/10/06 16:40:42;;;;;;;;;;;;;;;;;;5063973;28;807;-70
2022/10/06 16:43:07;;;;;;;;;;;;;;;;;;5063664;28;1937;-70
2022/10/06 16:45:33;;;;;;;;;;;;;;;;;;5063386;28;981;-70
2022/10/06 16:47:58;;;;;;;;;;;;;;;;;;5063596;28;889;-70
2022/10/06 16:50:23;;;;;;;;;;;;;;;;;;5063722;28;1024;-71
2022/10/06 16:52:48;;;;;;;;;;;;;;;;;;5078937;28;1384;-70
2022/10/06 16:55:13;;;;;;;;;;;;;;;;;;5063255;28;938;-70
2022/10/06 16:57:39;;;;;;;;;;;;;;;;;;5063532;28;779;-70
2022/10/06 17:00:04;;;;;;;;;;;;;;;;;;5062543;28;1150;-70
2022/10/06 17:02:30;;;;;;;;;;;;;;;;;;5063317;28;1951;-70
2022/10/06 17:04:55;;;;;;;;;;;;;;;;;;5063008;28;938;-70
2022/10/06 17:07:20;;;;;;;;;;;;;;;;;;5063431;28;894;-70
2022/10/06 17:09:46;;;;;;;;;;;;;;;;;;5063182;28;839;-70
2022/10/06 17:12:11;;;;;;;;;;;;;;;;;;5063252;28;1180;-70
2022/10/06 17:14:36;;;;;;;;;;;;;;;;;;5062746;28;949;-70
2022/10/06 17:17:02;;;;;;;;;;;;;;;;;;5063285;28;783;-70
2022/10/06 17:19:28;;;;;;;;;;;;;;;;;;5062954;28;846;-70
2022/10/06 17:21:53;;;;;;;;;;;;;;;;;;5063467;28;839;-70
2022/10/06 17:24:18;;;;;;;;;;;;;;;;;;5062792;28;1977;-70
2022/10/06 17:26:45;;;;;;;;;;;;;;;;;;5062847;28;847;-70
2022/10/06 17:29:12;;;;;;;;;;;;;;;;;;5062910;28;858;-70
2022/10/06 17:31:39;;;;;;;;;;;;;;;;;;5062968;28;870;-70
2022/10/06 17:34:07;;;;;;;;;;;;;;;;;;5062575;28;1184;-70
2022/10/06 17:36:32;;;;;;;;;;;;;;;;;;5062825;28;808;-70
2022/10/06 17:39:00;;;;;;;;;;;;;;;;;;5062970;28;865;-70
2022/10/06 17:41:32;;;;;;;;;;;;;;;;;;5063194;28;827;-70